createdAt,value
2023-03-15T00:01:46.540Z,99.90
2023-03-15T00:04:13.790Z,99.90
2023-03-15T00:06:40.813Z,99.90
2023-03-15T00:09:07.402Z,99.90
2023-03-15T00:11:34.411Z,99.90
2023-03-15T00:14:02.314Z,99.90
2023-03-15T00:16:28.965Z,99.90
2023-03-15T00:18:56.384Z,99.90
2023-03-15T00:21:23.658Z,99.90
2023-03-15T00:23:50.611Z,99.90
2023-03-15T00:26:17.633Z,99.90
2023-03-15T00:28:44.537Z,99.90
2023-03-15T00:31:20.398Z,99.90
2023-03-15T00:33:47.885Z,99.90
2023-03-15T00:36:15.465Z,99.90
2023-03-15T00:38:46.096Z,99.90
2023-03-15T00:41:15.484Z,99.90
2023-03-15T00:43:42.746Z,99.90
2023-03-15T00:46:10.123Z,99.90
2023-03-15T00:48:37.372Z,99.90
2023-03-15T00:51:09.541Z,99.90
2023-03-15T00:53:36.865Z,99.90
2023-03-15T00:56:08.498Z,99.90
2023-03-15T00:58:35.175Z,99.90
2023-03-15T01:01:07.585Z,99.90
2023-03-15T01:03:36.755Z,99.90
2023-03-15T01:06:12.929Z,99.90
2023-03-15T01:08:39.684Z,99.90
2023-03-15T01:11:08.929Z,99.90
2023-03-15T01:13:36.416Z,99.90
2023-03-15T01:16:03.881Z,99.90
2023-03-15T01:18:30.984Z,99.90
2023-03-15T01:20:58.114Z,99.90
2023-03-15T01:23:24.700Z,99.90
2023-03-15T01:25:51.295Z,99.90
2023-03-15T01:28:17.972Z,99.90
2023-03-15T01:30:54.142Z,99.90
2023-03-15T01:33:21.675Z,99.90
2023-03-15T01:35:58.932Z,99.90
2023-03-15T01:38:25.573Z,99.90
2023-03-15T01:40:52.260Z,99.90
2023-03-15T01:43:21.538Z,99.90
2023-03-15T01:46:15.942Z,99.90
2023-03-15T01:48:54.747Z,99.90
2023-03-15T01:51:26.836Z,99.90
2023-03-15T01:53:59.876Z,99.90
2023-03-15T01:56:28.543Z,99.90
2023-03-15T01:58:59.011Z,99.90
2023-03-15T02:01:26.215Z,99.90
2023-03-15T02:04:02.968Z,99.90
2023-03-15T02:06:35.023Z,99.90
2023-03-15T02:09:08.566Z,99.90
2023-03-15T02:11:36.534Z,99.90
2023-03-15T02:14:05.213Z,99.90
2023-03-15T02:16:31.986Z,99.90
2023-03-15T02:18:58.683Z,99.90
2023-03-15T02:21:57.835Z,99.90
2023-03-15T02:24:45.306Z,99.90
2023-03-15T02:27:12.413Z,99.90
2023-03-15T02:29:39.056Z,99.90
2023-03-15T02:32:06.147Z,99.90
2023-03-15T02:34:32.772Z,99.90
2023-03-15T02:36:59.331Z,99.90
2023-03-15T02:39:27.160Z,99.90
2023-03-15T02:41:57.012Z,99.90
2023-03-15T02:44:29.422Z,99.90
2023-03-15T02:47:01.248Z,99.90
2023-03-15T02:49:33.047Z,99.90
2023-03-15T02:51:59.690Z,99.90
2023-03-15T02:54:26.274Z,99.90
2023-03-15T02:56:53.283Z,99.90
2023-03-15T02:59:19.847Z,99.90
2023-03-15T03:01:46.522Z,99.90
2023-03-15T03:04:13.150Z,99.90
2023-03-15T03:06:39.759Z,99.90
2023-03-15T03:09:06.631Z,99.90
2023-03-15T03:11:33.195Z,99.90
2023-03-15T03:13:59.735Z,99.90
2023-03-15T03:16:26.335Z,99.90
2023-03-15T03:18:53.071Z,99.90
2023-03-15T03:21:19.723Z,99.90
2023-03-15T03:23:46.438Z,99.90
2023-03-15T03:26:17.100Z,99.90
2023-03-15T03:28:45.568Z,99.90
2023-03-15T03:31:23.663Z,99.90
2023-03-15T03:33:50.793Z,99.90
2023-03-15T03:36:18.037Z,99.90
2023-03-15T03:38:46.136Z,99.90
2023-03-15T03:41:14.499Z,99.90
2023-03-15T03:43:41.362Z,99.90
2023-03-15T03:46:08.016Z,99.90
2023-03-15T03:48:35.467Z,99.90
2023-03-15T03:51:02.092Z,99.90
2023-03-15T03:53:28.663Z,99.90
2023-03-15T03:55:55.240Z,99.90
2023-03-15T03:58:22.369Z,99.90
2023-03-15T04:00:49.266Z,99.90
2023-03-15T04:03:16.162Z,99.90
2023-03-15T04:05:42.697Z,99.90
2023-03-15T04:08:09.494Z,99.90
2023-03-15T04:10:36.046Z,99.90
2023-03-15T04:13:03.187Z,99.90
2023-03-15T04:15:29.800Z,99.90
2023-03-15T04:17:56.377Z,99.90
2023-03-15T04:20:24.091Z,99.90
2023-03-15T04:22:50.681Z,99.90
2023-03-15T04:25:18.468Z,99.90
2023-03-15T04:27:45.452Z,99.90
2023-03-15T04:30:12.603Z,99.90
2023-03-15T04:32:39.169Z,99.90
2023-03-15T04:35:06.033Z,99.90
2023-03-15T04:37:32.609Z,99.90
2023-03-15T04:39:59.159Z,99.90
2023-03-15T04:42:26.096Z,99.90
2023-03-15T04:44:53.802Z,99.90
2023-03-15T04:47:22.591Z,99.90
2023-03-15T04:49:49.196Z,99.90
2023-03-15T04:52:15.752Z,99.90
2023-03-15T04:54:42.319Z,99.90
2023-03-15T04:57:08.976Z,99.90
2023-03-15T04:59:35.530Z,99.90
2023-03-15T05:02:03.865Z,99.90
2023-03-15T05:04:30.899Z,99.90
2023-03-15T05:06:57.439Z,99.90
2023-03-15T05:09:24.026Z,99.90
2023-03-15T05:11:50.907Z,99.90
2023-03-15T05:14:17.515Z,99.90
2023-03-15T05:16:44.102Z,99.90
2023-03-15T05:19:11.248Z,99.90
2023-03-15T05:21:37.855Z,99.90
2023-03-15T05:24:04.594Z,99.90
2023-03-15T05:26:31.133Z,99.90
2023-03-15T05:28:57.775Z,99.90
2023-03-15T05:31:24.416Z,99.90
2023-03-15T05:33:54.362Z,99.90
2023-03-15T05:36:21.563Z,99.90
2023-03-15T05:38:48.197Z,99.90
2023-03-15T05:41:17.787Z,99.90
2023-03-15T05:43:44.518Z,99.90
2023-03-15T05:46:11.102Z,99.90
2023-03-15T05:48:37.696Z,99.90
2023-03-15T05:51:04.542Z,99.90
2023-03-15T05:53:31.131Z,99.90
2023-03-15T05:55:57.715Z,99.90
2023-03-15T05:58:24.340Z,99.90
2023-03-15T06:00:51.017Z,99.90
2023-03-15T06:03:17.750Z,99.90
2023-03-15T06:05:44.904Z,99.90
2023-03-15T06:08:11.512Z,99.90
2023-03-15T06:10:38.196Z,99.90
2023-03-15T06:13:05.543Z,99.90
2023-03-15T06:15:32.212Z,99.90
2023-03-15T06:17:59.081Z,99.90
2023-03-15T06:20:26.180Z,99.90
2023-03-15T06:22:53.091Z,99.90
2023-03-15T06:25:19.800Z,99.90
2023-03-15T06:27:46.408Z,99.90
2023-03-15T06:30:15.894Z,99.90
2023-03-15T06:32:43.711Z,99.90
2023-03-15T06:35:10.776Z,99.90
2023-03-15T06:37:37.439Z,99.90
2023-03-15T06:40:09.289Z,99.90
2023-03-15T06:42:36.927Z,99.90
2023-03-15T06:45:04.059Z,99.90
2023-03-15T06:47:30.708Z,99.90
2023-03-15T06:49:57.275Z,99.90
2023-03-15T06:52:24.387Z,99.90
2023-03-15T06:54:50.930Z,99.90
2023-03-15T06:57:17.727Z,99.90
2023-03-15T06:59:44.966Z,99.90
2023-03-15T07:02:18.364Z,99.90
2023-03-15T07:04:45.273Z,99.90
2023-03-15T07:07:12.820Z,99.90
2023-03-15T07:09:39.450Z,99.90
2023-03-15T07:12:06.645Z,99.90
2023-03-15T07:14:36.410Z,99.90
2023-03-15T07:17:03.244Z,99.90
2023-03-15T07:19:29.824Z,99.90
2023-03-15T07:21:56.365Z,99.90
2023-03-15T07:24:22.898Z,99.00
2023-03-15T07:26:50.674Z,97.50
2023-03-15T07:29:18.404Z,95.00
2023-03-15T07:31:44.980Z,93.50
2023-03-15T07:34:11.520Z,92.20
2023-03-15T07:36:38.063Z,90.30
2023-03-15T07:39:04.844Z,89.40
2023-03-15T07:41:31.399Z,87.50
2023-03-15T07:43:58.639Z,84.30
2023-03-15T07:46:25.508Z,82.00
2023-03-15T07:48:52.156Z,80.10
2023-03-15T07:51:18.708Z,79.40
2023-03-15T07:53:45.296Z,76.10
2023-03-15T07:56:12.086Z,74.40
2023-03-15T07:58:38.637Z,73.90
2023-03-15T08:01:05.528Z,71.80
2023-03-15T08:03:32.330Z,69.80
2023-03-15T08:05:58.939Z,68.90
2023-03-15T08:08:26.149Z,69.60
2023-03-15T08:10:52.705Z,68.60
2023-03-15T08:13:19.243Z,70.00
2023-03-15T08:15:47.177Z,67.90
2023-03-15T08:18:14.268Z,70.70
2023-03-15T08:20:40.932Z,67.40
2023-03-15T08:23:09.091Z,65.60
2023-03-15T08:25:40.525Z,65.30
2023-03-15T08:28:07.080Z,64.50
2023-03-15T08:30:33.635Z,64.00
2023-03-15T08:33:00.320Z,63.50
2023-03-15T08:35:27.116Z,62.90
2023-03-15T08:37:53.696Z,62.40
2023-03-15T08:40:24.028Z,61.00
2023-03-15T08:42:51.150Z,62.20
2023-03-15T08:45:18.286Z,61.60
2023-03-15T08:47:44.888Z,61.20
2023-03-15T08:50:13.409Z,60.70
2023-03-15T08:52:40.551Z,60.20
2023-03-15T08:55:08.046Z,62.90
2023-03-15T08:57:34.682Z,61.60
2023-03-15T09:00:07.191Z,62.80
2023-03-15T09:02:34.170Z,62.80
2023-03-15T09:05:00.740Z,60.70
2023-03-15T09:07:27.377Z,61.50
2023-03-15T09:09:54.235Z,58.80
2023-03-15T09:12:21.400Z,58.40
2023-03-15T09:14:47.992Z,55.70
2023-03-15T09:17:14.586Z,56.80
2023-03-15T09:19:41.293Z,56.40
2023-03-15T09:22:17.006Z,58.20
2023-03-15T09:24:51.787Z,59.70
2023-03-15T09:27:19.096Z,60.30
2023-03-15T09:29:45.740Z,57.10
2023-03-15T09:32:12.436Z,56.10
2023-03-15T09:34:41.940Z,55.80
2023-03-15T09:37:09.465Z,57.20
2023-03-15T09:39:36.065Z,59.60
2023-03-15T09:42:06.435Z,60.80
2023-03-15T09:44:48.040Z,64.60
2023-03-15T09:47:25.860Z,68.70
2023-03-15T09:50:02.989Z,73.80
2023-03-15T09:52:51.607Z,87.40
2023-03-15T09:55:18.129Z,94.60
2023-03-15T09:57:51.143Z,99.90
2023-03-15T10:00:36.125Z,99.90
2023-03-15T10:03:07.076Z,99.90
2023-03-15T10:05:52.258Z,99.90
2023-03-15T10:08:19.741Z,99.90
2023-03-15T10:11:00.076Z,99.90
2023-03-15T10:13:35.271Z,99.90
2023-03-15T10:16:13.829Z,99.90
2023-03-15T10:19:06.845Z,99.90
2023-03-15T10:21:49.800Z,99.90
2023-03-15T10:24:31.462Z,99.90
2023-03-15T10:27:04.644Z,99.90
2023-03-15T10:29:31.741Z,99.90
2023-03-15T10:31:58.822Z,99.90
2023-03-15T10:34:26.828Z,99.90
2023-03-15T10:36:55.083Z,99.90
2023-03-15T10:39:24.741Z,99.90
2023-03-15T10:41:51.471Z,99.90
2023-03-15T10:44:24.789Z,99.90
2023-03-15T10:47:23.137Z,99.90
2023-03-15T10:49:55.599Z,99.90
2023-03-15T10:52:37.162Z,99.90
2023-03-15T10:55:27.226Z,99.90
2023-03-15T10:57:56.863Z,99.90
2023-03-15T11:00:31.233Z,99.90
2023-03-15T11:03:17.248Z,99.90
2023-03-15T11:05:55.337Z,99.90
2023-03-15T11:08:24.991Z,99.90
2023-03-15T11:10:59.838Z,99.90
2023-03-15T11:13:31.753Z,99.90
2023-03-15T11:16:04.502Z,99.90
2023-03-15T11:18:55.344Z,99.90
2023-03-15T11:21:28.923Z,99.90
2023-03-15T11:23:56.712Z,99.90
2023-03-15T11:26:33.329Z,99.90
2023-03-15T11:29:22.069Z,99.90
2023-03-15T11:31:51.044Z,99.90
2023-03-15T11:34:43.098Z,99.90
2023-03-15T11:37:32.138Z,99.90
2023-03-15T11:40:14.499Z,99.90
2023-03-15T11:43:03.396Z,99.90
2023-03-15T11:45:39.442Z,99.90
2023-03-15T11:48:36.661Z,99.90
2023-03-15T11:51:03.945Z,99.90
2023-03-15T11:53:37.481Z,99.90
2023-03-15T11:56:28.798Z,99.90
2023-03-15T11:59:16.428Z,99.90
2023-03-15T12:01:50.601Z,99.90
2023-03-15T12:04:32.783Z,99.90
2023-03-15T12:07:27.651Z,99.90
2023-03-15T12:10:04.356Z,99.90
2023-03-15T12:12:30.889Z,99.90
2023-03-15T12:15:06.976Z,99.90
2023-03-15T12:17:58.505Z,99.90
2023-03-15T12:20:37.649Z,99.90
2023-03-15T12:23:19.188Z,99.90
2023-03-15T12:25:59.710Z,99.90
2023-03-15T12:28:51.260Z,99.90
2023-03-15T12:31:18.457Z,99.90
2023-03-15T12:33:54.945Z,99.90
2023-03-15T12:36:45.558Z,99.90
2023-03-15T12:39:15.408Z,99.90
2023-03-15T12:41:50.188Z,99.90
2023-03-15T12:44:26.970Z,99.90
2023-03-15T12:46:55.638Z,97.10
2023-03-15T12:49:25.004Z,93.80
2023-03-15T12:51:59.510Z,91.10
2023-03-15T12:54:40.077Z,89.90
2023-03-15T12:57:10.010Z,84.00
2023-03-15T12:59:56.152Z,82.50
2023-03-15T13:02:42.189Z,81.30
2023-03-15T13:05:09.088Z,81.00
2023-03-15T13:08:04.057Z,83.50
2023-03-15T13:10:53.024Z,77.10
2023-03-15T13:13:38.336Z,79.90
2023-03-15T13:16:23.676Z,78.20
2023-03-15T13:19:14.320Z,78.70
2023-03-15T13:22:02.962Z,79.80
2023-03-15T13:24:59.845Z,81.90
2023-03-15T13:27:51.785Z,83.30
2023-03-15T13:30:39.802Z,82.90
2023-03-15T13:33:21.173Z,87.00
2023-03-15T13:35:53.415Z,83.30
2023-03-15T13:38:25.373Z,85.60
2023-03-15T13:40:52.863Z,82.90
2023-03-15T13:43:19.703Z,85.30
2023-03-15T13:45:46.786Z,83.90
2023-03-15T13:48:13.484Z,84.60
2023-03-15T13:50:40.527Z,85.00
2023-03-15T13:53:07.475Z,84.40
2023-03-15T13:55:36.195Z,86.20
2023-03-15T13:58:08.044Z,84.20
2023-03-15T14:00:36.749Z,85.30
2023-03-15T14:03:07.764Z,83.70
2023-03-15T14:05:46.612Z,84.90
2023-03-15T14:08:31.878Z,82.90
2023-03-15T14:11:17.513Z,84.00
2023-03-15T14:13:54.393Z,84.90
2023-03-15T14:16:57.360Z,87.50
2023-03-15T14:19:31.268Z,88.20
2023-03-15T14:22:00.833Z,84.40
2023-03-15T14:24:42.487Z,82.40
2023-03-15T14:27:26.088Z,85.90
2023-03-15T14:29:56.303Z,80.40
2023-03-15T14:32:35.600Z,80.50
2023-03-15T14:35:37.636Z,80.90
2023-03-15T14:38:21.352Z,83.30
2023-03-15T14:40:48.744Z,84.20
2023-03-15T14:43:15.827Z,83.10
2023-03-15T14:45:46.151Z,82.40
2023-03-15T14:48:18.772Z,82.90
2023-03-15T14:50:45.938Z,83.00
2023-03-15T14:53:18.322Z,81.90
2023-03-15T14:55:45.132Z,83.60
2023-03-15T14:58:14.572Z,83.00
2023-03-15T15:00:42.305Z,85.90
2023-03-15T15:03:20.138Z,87.00
2023-03-15T15:05:46.932Z,89.30
2023-03-15T15:08:16.267Z,90.20
2023-03-15T15:10:45.925Z,90.30
2023-03-15T15:13:30.313Z,90.20
2023-03-15T15:15:57.371Z,90.80
2023-03-15T15:18:25.906Z,90.10
2023-03-15T15:20:55.608Z,87.60
2023-03-15T15:23:28.419Z,89.70
2023-03-15T15:26:04.039Z,87.40
2023-03-15T15:28:35.811Z,86.90
2023-03-15T15:31:07.475Z,88.40
2023-03-15T15:33:34.558Z,90.70
2023-03-15T15:36:01.423Z,90.60
2023-03-15T15:38:33.037Z,91.30
2023-03-15T15:40:59.892Z,90.30
2023-03-15T15:43:26.527Z,91.90
2023-03-15T15:45:53.147Z,88.80
2023-03-15T15:48:19.738Z,89.50
2023-03-15T15:50:46.294Z,90.10
2023-03-15T15:53:16.973Z,91.20
2023-03-15T15:55:44.213Z,91.70
2023-03-15T15:58:12.731Z,91.80
2023-03-15T16:00:39.349Z,91.90
2023-03-15T16:03:15.963Z,91.50
2023-03-15T16:05:43.524Z,91.60
2023-03-15T16:08:23.864Z,93.10
2023-03-15T16:10:50.907Z,93.10
2023-03-15T16:13:17.852Z,91.80
2023-03-15T16:15:44.457Z,91.00
2023-03-15T16:18:12.150Z,90.90
2023-03-15T16:20:40.583Z,91.10
2023-03-15T16:23:14.119Z,91.60
2023-03-15T16:25:41.834Z,91.10
2023-03-15T16:28:11.470Z,91.80
2023-03-15T16:30:38.709Z,92.70
2023-03-15T16:33:14.282Z,92.50
2023-03-15T16:35:40.938Z,91.70
2023-03-15T16:38:14.626Z,93.40
2023-03-15T16:40:43.115Z,93.10
2023-03-15T16:43:13.646Z,93.10
2023-03-15T16:45:40.590Z,92.60
2023-03-15T16:48:07.271Z,93.30
2023-03-15T16:50:35.087Z,93.80
2023-03-15T16:53:06.609Z,93.70
2023-03-15T16:55:34.186Z,94.40
2023-03-15T16:58:12.728Z,95.20
2023-03-15T17:00:39.302Z,96.60
2023-03-15T17:03:05.988Z,96.40
2023-03-15T17:05:33.026Z,96.10
2023-03-15T17:08:00.711Z,97.00
2023-03-15T17:10:30.956Z,97.50
2023-03-15T17:13:00.146Z,97.90
2023-03-15T17:15:27.890Z,98.30
2023-03-15T17:17:58.137Z,99.00
2023-03-15T17:20:29.255Z,99.90
2023-03-15T17:22:58.900Z,99.90
2023-03-15T17:25:25.643Z,99.90
2023-03-15T17:27:52.438Z,99.90
2023-03-15T17:30:28.593Z,99.90
2023-03-15T17:32:55.891Z,99.90
2023-03-15T17:35:28.044Z,99.90
2023-03-15T17:37:54.968Z,99.90
2023-03-15T17:40:27.405Z,99.90
2023-03-15T17:43:00.662Z,99.90
2023-03-15T17:45:30.683Z,99.90
2023-03-15T17:47:57.687Z,99.90
2023-03-15T17:50:27.183Z,99.90
2023-03-15T17:53:00.367Z,99.90
2023-03-15T17:55:29.019Z,99.90
2023-03-15T17:57:56.195Z,99.90
2023-03-15T18:00:23.913Z,99.90
2023-03-15T18:02:58.815Z,99.90
2023-03-15T18:05:27.042Z,99.90
2023-03-15T18:08:00.746Z,99.90
2023-03-15T18:10:35.985Z,99.90
2023-03-15T18:13:03.819Z,99.90
2023-03-15T18:15:30.533Z,99.90
2023-03-15T18:17:57.145Z,99.90
2023-03-15T18:20:24.197Z,99.90
2023-03-15T18:22:51.698Z,99.90
2023-03-15T18:25:31.344Z,99.90
2023-03-15T18:27:58.450Z,99.90
2023-03-15T18:30:28.067Z,99.90
2023-03-15T18:32:55.688Z,99.90
2023-03-15T18:35:29.659Z,99.90
2023-03-15T18:37:57.927Z,99.90
2023-03-15T18:40:27.511Z,99.90
2023-03-15T18:42:55.076Z,99.90
2023-03-15T18:45:24.633Z,99.90
2023-03-15T18:47:51.773Z,99.90
2023-03-15T18:50:18.980Z,99.90
2023-03-15T18:52:46.609Z,99.90
2023-03-15T18:55:15.218Z,99.90
2023-03-15T18:57:42.887Z,99.90
2023-03-15T19:00:13.791Z,99.90
2023-03-15T19:02:45.752Z,99.90
2023-03-15T19:05:14.288Z,99.90
2023-03-15T19:07:41.444Z,99.90
2023-03-15T19:10:13.912Z,99.90
2023-03-15T19:12:46.690Z,99.90
2023-03-15T19:15:17.120Z,99.90
2023-03-15T19:17:45.497Z,99.90
2023-03-15T19:20:18.451Z,99.90
2023-03-15T19:22:45.234Z,99.90
2023-03-15T19:25:13.769Z,99.90
2023-03-15T19:27:43.960Z,99.90
2023-03-15T19:30:16.271Z,99.90
2023-03-15T19:32:45.647Z,99.90
2023-03-15T19:35:12.254Z,99.90
2023-03-15T19:37:39.173Z,99.90
2023-03-15T19:40:09.465Z,99.90
2023-03-15T19:42:36.128Z,99.90
2023-03-15T19:45:03.181Z,99.90
2023-03-15T19:47:29.724Z,99.90
2023-03-15T19:49:56.332Z,99.90
2023-03-15T19:52:23.155Z,99.90
2023-03-15T19:54:51.851Z,99.90
2023-03-15T19:57:18.491Z,99.90
2023-03-15T19:59:45.083Z,99.90
2023-03-15T20:02:11.911Z,99.90
2023-03-15T20:04:38.898Z,99.90
2023-03-15T20:07:05.532Z,99.90
2023-03-15T20:09:37.914Z,99.90
2023-03-15T20:12:09.586Z,99.90
2023-03-15T20:14:37.076Z,99.90
2023-03-15T20:17:03.716Z,99.90
2023-03-15T20:19:30.875Z,99.90
2023-03-15T20:21:57.906Z,99.90
2023-03-15T20:24:24.893Z,99.90
2023-03-15T20:26:52.162Z,99.90
2023-03-15T20:29:19.070Z,99.90
2023-03-15T20:31:45.971Z,99.90
2023-03-15T20:34:12.574Z,99.90
2023-03-15T20:36:39.244Z,99.90
2023-03-15T20:39:05.878Z,99.90
2023-03-15T20:41:35.273Z,99.90
2023-03-15T20:44:01.812Z,99.90
2023-03-15T20:46:29.322Z,99.90
2023-03-15T20:48:56.121Z,99.90
2023-03-15T20:51:22.760Z,99.90
2023-03-15T20:53:49.423Z,99.90
2023-03-15T20:56:17.750Z,99.90
2023-03-15T20:58:46.557Z,99.90
2023-03-15T21:01:16.380Z,99.90
2023-03-15T21:03:46.140Z,99.90
2023-03-15T21:06:13.418Z,99.90
2023-03-15T21:08:41.462Z,99.90
2023-03-15T21:11:08.203Z,99.90
2023-03-15T21:13:35.186Z,99.90
2023-03-15T21:16:04.303Z,99.90
2023-03-15T21:18:32.713Z,99.90
2023-03-15T21:21:02.031Z,99.90
2023-03-15T21:23:32.462Z,99.90
2023-03-15T21:26:08.038Z,99.90
2023-03-15T21:28:34.954Z,99.90
2023-03-15T21:31:01.680Z,99.90
2023-03-15T21:33:29.893Z,99.90
2023-03-15T21:35:58.771Z,99.90
2023-03-15T21:38:26.809Z,99.90
2023-03-15T21:40:58.181Z,99.90
2023-03-15T21:43:33.978Z,99.90
2023-03-15T21:46:03.236Z,99.90
2023-03-15T21:48:30.401Z,99.90
2023-03-15T21:50:57.047Z,99.90
2023-03-15T21:53:23.859Z,99.90
2023-03-15T21:55:50.475Z,99.90
2023-03-15T21:58:17.034Z,99.90
2023-03-15T22:00:43.687Z,99.90
2023-03-15T22:03:13.350Z,99.90
2023-03-15T22:05:39.905Z,99.90
2023-03-15T22:08:06.817Z,99.90
2023-03-15T22:10:33.440Z,99.90
2023-03-15T22:13:00.172Z,99.90
2023-03-15T22:15:26.860Z,99.90
2023-03-15T22:17:53.576Z,99.90
2023-03-15T22:20:20.462Z,99.90
2023-03-15T22:22:48.907Z,99.90
2023-03-15T22:25:15.913Z,99.90
2023-03-15T22:27:42.791Z,99.90
2023-03-15T22:30:15.918Z,99.90
2023-03-15T22:32:45.359Z,99.90
2023-03-15T22:35:13.959Z,99.90
2023-03-15T22:37:40.717Z,99.90
2023-03-15T22:40:08.257Z,99.90
2023-03-15T22:42:34.821Z,99.90
2023-03-15T22:45:01.604Z,99.90
2023-03-15T22:47:28.472Z,99.90
2023-03-15T22:49:55.371Z,99.90
2023-03-15T22:52:21.923Z,99.90
2023-03-15T22:54:48.463Z,99.90
2023-03-15T22:57:15.258Z,99.90
2023-03-15T22:59:41.862Z,99.90
2023-03-15T23:02:08.884Z,99.90
2023-03-15T23:04:35.653Z,99.90
2023-03-15T23:07:02.279Z,99.90
2023-03-15T23:09:28.895Z,99.90
2023-03-15T23:11:55.453Z,99.90
2023-03-15T23:14:22.104Z,99.90
2023-03-15T23:16:48.836Z,99.90
2023-03-15T23:19:15.471Z,99.90
2023-03-15T23:21:42.029Z,99.90
2023-03-15T23:24:08.760Z,99.90
2023-03-15T23:26:37.569Z,99.90
2023-03-15T23:29:10.708Z,99.90
2023-03-15T23:31:41.577Z,99.90
2023-03-15T23:34:08.651Z,99.90
2023-03-15T23:36:36.333Z,99.90
2023-03-15T23:39:03.384Z,99.90
2023-03-15T23:41:29.961Z,99.90
2023-03-15T23:43:56.522Z,99.90
2023-03-15T23:46:25.983Z,99.90
2023-03-15T23:48:53.596Z,99.90
2023-03-15T23:51:22.019Z,99.90
2023-03-15T23:53:48.560Z,99.90
2023-03-15T23:56:15.105Z,99.90
2023-03-15T23:58:42.148Z,99.90
